Time;durP1;ratioP1;P1;durP2;ratioP2;P2;SDS_P1;SDS_P2;PMS_P1;PMS_P2;Temp;Humidity;BMP_temperature;BMP_pressure;BME280_temperature;BME280_humidity;BME280_pressure;Samples;Min_cycle;Max_cycle;Signal;HPM_P1;HPM_P2
2021/12/05 00:17:39;;;;;;;2.10;1.40;;;;;;;;;;5054919;28;20436;-46
2021/12/05 00:22:43;;;;;;;1.80;1.37;;;;;;;;;;5059116;28;20426;-49
2021/12/05 00:25:15;;;;;;;4.90;1.30;;;;;;;;;;5063991;28;20437;-47
2021/12/05 00:27:49;;;;;;;1.60;1.20;;;;;;;;;;5055014;28;20421;-47
2021/12/05 00:30:56;;;;;;;4.17;1.13;;;;;;;;;;5062966;28;20448;-47
2021/12/05 00:46:22;;;;;;;2.20;1.67;;;;;;;;;;5046370;28;20515;-46
2021/12/05 00:49:17;;;;;;;3.90;1.67;;;;;;;;;;5049382;28;20441;-46
2021/12/05 01:02:16;;;;;;;4.97;2.83;;;;;;;;;;5040795;28;20464;-46
2021/12/05 01:05:09;;;;;;;4.07;1.23;;;;;;;;;;5062058;28;20452;-45
2021/12/05 01:07:57;;;;;;;5.20;1.63;;;;;;;;;;5044913;28;20445;-46
2021/12/05 01:13:30;;;;;;;1.60;1.13;;;;;;;;;;5052154;28;21101;-46
2021/12/05 01:15:57;;;;;;;2.20;1.37;;;;;;;;;;5051576;28;20768;-46
2021/12/05 01:18:23;;;;;;;1.50;1.27;;;;;;;;;;5058337;28;20449;-45
2021/12/05 01:20:56;;;;;;;5.00;1.77;;;;;;;;;;5056382;28;21067;-46
2021/12/05 01:23:28;;;;;;;2.33;1.47;;;;;;;;;;5055116;28;20433;-46
2021/12/05 01:31:44;;;;;;;2.77;1.23;;;;;;;;;;5041837;28;20451;-46
2021/12/05 01:34:21;;;;;;;7.13;1.20;;;;;;;;;;5059260;28;20452;-46
2021/12/05 01:37:05;;;;;;;4.10;1.47;;;;;;;;;;5047024;28;20934;-48
2021/12/05 01:53:19;;;;;;;3.30;1.83;;;;;;;;;;5054712;28;20449;-48
2021/12/05 02:31:16;;;;;;;2.63;1.07;;;;;;;;;;5057965;28;20468;-47
2021/12/05 02:33:58;;;;;;;2.17;1.20;;;;;;;;;;5050258;28;21570;-47
2021/12/05 02:36:53;;;;;;;1.63;1.43;;;;;;;;;;5065314;28;20759;-45
2021/12/05 02:41:49;;;;;;;1.87;1.27;;;;;;;;;;5055672;28;20568;-45
2021/12/05 02:44:20;;;;;;;4.80;1.43;;;;;;;;;;5043225;28;20441;-48
2021/12/05 02:46:59;;;;;;;2.37;1.20;;;;;;;;;;5078256;28;20494;-46
2021/12/05 02:49:26;;;;;;;1.93;1.17;;;;;;;;;;5042601;28;21369;-45
2021/12/05 02:51:56;;;;;;;3.50;1.60;;;;;;;;;;5058036;28;20433;-46
2021/12/05 02:54:32;;;;;;;2.67;1.43;;;;;;;;;;5050584;28;20501;-48
2021/12/05 02:57:05;;;;;;;1.93;1.50;;;;;;;;;;5064710;28;20448;-45
2021/12/05 03:02:12;;;;;;;2.50;1.03;;;;;;;;;;5059862;28;20449;-45
2021/12/05 03:04:40;;;;;;;2.50;1.17;;;;;;;;;;5055501;28;20434;-45
2021/12/05 03:07:08;;;;;;;1.93;1.77;;;;;;;;;;5059359;28;20437;-45
2021/12/05 03:09:34;;;;;;;1.50;1.20;;;;;;;;;;5053240;28;20952;-45
2021/12/05 03:12:00;;;;;;;4.30;1.50;;;;;;;;;;5065157;28;20441;-45
2021/12/05 03:14:26;;;;;;;1.83;1.30;;;;;;;;;;5050371;28;20445;-47
2021/12/05 03:16:52;;;;;;;1.87;1.27;;;;;;;;;;5059809;28;20434;-45
2021/12/05 03:19:18;;;;;;;7.53;1.30;;;;;;;;;;5046856;28;20798;-46
2021/12/05 03:21:45;;;;;;;7.00;1.50;;;;;;;;;;5060866;28;20568;-45
2021/12/05 03:24:11;;;;;;;3.37;1.20;;;;;;;;;;5051592;28;20428;-47
2021/12/05 03:26:38;;;;;;;2.93;1.77;;;;;;;;;;5061137;28;20437;-46
2021/12/05 03:29:05;;;;;;;2.43;1.10;;;;;;;;;;5058131;28;20430;-46
2021/12/05 03:31:32;;;;;;;6.60;1.67;;;;;;;;;;5061385;28;20426;-47
2021/12/05 03:34:00;;;;;;;5.47;1.40;;;;;;;;;;5046312;28;20441;-47
2021/12/05 03:36:26;;;;;;;4.10;1.47;;;;;;;;;;5060384;28;20449;-49
2021/12/05 03:38:52;;;;;;;2.60;1.23;;;;;;;;;;5053810;28;20425;-44
2021/12/05 03:41:18;;;;;;;3.33;1.60;;;;;;;;;;5061088;28;20496;-47
2021/12/05 03:46:27;;;;;;;2.00;1.00;;;;;;;;;;5060873;28;20632;-45
2021/12/05 03:48:55;;;;;;;5.43;1.90;;;;;;;;;;5052433;28;20426;-44
2021/12/05 03:51:21;;;;;;;3.47;1.37;;;;;;;;;;5062971;28;20421;-45
2021/12/05 03:54:10;;;;;;;3.17;1.30;;;;;;;;;;5047532;28;20558;-48
2021/12/05 03:56:36;;;;;;;2.50;1.37;;;;;;;;;;5056725;28;20418;-45
2021/12/05 03:59:02;;;;;;;1.43;1.03;;;;;;;;;;5062923;28;20915;-45
2021/12/05 04:01:28;;;;;;;1.73;1.33;;;;;;;;;;5044511;28;20564;-47
2021/12/05 04:03:54;;;;;;;6.20;1.97;;;;;;;;;;5063043;28;20501;-47
2021/12/05 04:06:21;;;;;;;4.63;1.33;;;;;;;;;;5047089;28;20438;-48
2021/12/05 04:08:48;;;;;;;1.97;1.10;;;;;;;;;;5063078;28;20422;-45
2021/12/05 04:11:29;;;;;;;2.37;0.90;;;;;;;;;;5046168;28;20445;-47
2021/12/05 04:13:55;;;;;;;3.10;1.10;;;;;;;;;;5064089;28;20421;-51
2021/12/05 04:16:29;;;;;;;1.47;1.20;;;;;;;;;;5046286;28;20528;-48
2021/12/05 04:18:56;;;;;;;2.47;1.30;;;;;;;;;;5059325;28;20429;-45
2021/12/05 04:21:22;;;;;;;5.03;2.30;;;;;;;;;;5053144;28;20469;-45
2021/12/05 04:23:48;;;;;;;2.47;1.20;;;;;;;;;;5063185;28;20437;-45
2021/12/05 04:26:50;;;;;;;2.00;1.20;;;;;;;;;;5043637;28;20517;-48
2021/12/05 04:29:16;;;;;;;1.10;1.00;;;;;;;;;;5046513;28;20437;-45
2021/12/05 04:31:49;;;;;;;1.50;0.80;;;;;;;;;;5045135;28;20444;-48
2021/12/05 04:34:15;;;;;;;3.47;1.10;;;;;;;;;;5060337;28;20441;-47
2021/12/05 04:36:42;;;;;;;2.23;1.20;;;;;;;;;;5047998;28;20476;-47
2021/12/05 04:39:18;;;;;;;2.53;1.60;;;;;;;;;;5062466;28;20434;-47
2021/12/05 04:41:48;;;;;;;3.37;1.10;;;;;;;;;;5044839;28;20465;-46
2021/12/05 04:44:14;;;;;;;1.53;1.20;;;;;;;;;;5064906;28;20444;-44
2021/12/05 04:46:48;;;;;;;5.77;1.47;;;;;;;;;;5052651;28;20450;-47
2021/12/05 04:49:14;;;;;;;4.60;3.10;;;;;;;;;;5063570;28;20433;-45
2021/12/05 04:51:40;;;;;;;4.13;1.30;;;;;;;;;;5056532;28;20614;-45
2021/12/05 04:54:07;;;;;;;1.30;1.00;;;;;;;;;;5067543;28;21203;-45
2021/12/05 04:56:33;;;;;;;1.87;1.50;;;;;;;;;;5051612;28;20552;-45
2021/12/05 04:58:59;;;;;;;4.03;1.33;;;;;;;;;;5057257;28;20436;-45
2021/12/05 05:01:38;;;;;;;1.87;1.00;;;;;;;;;;5034240;28;20481;-47
2021/12/05 05:04:17;;;;;;;1.10;1.00;;;;;;;;;;5053591;28;20480;-47
2021/12/05 05:06:44;;;;;;;5.07;1.43;;;;;;;;;;5054118;28;20564;-46
2021/12/05 05:09:10;;;;;;;6.10;1.50;;;;;;;;;;5058280;28;20525;-46
2021/12/05 05:11:37;;;;;;;3.73;1.67;;;;;;;;;;5057003;28;20422;-46
2021/12/05 05:14:03;;;;;;;2.50;1.20;;;;;;;;;;5057776;28;20449;-46
2021/12/05 05:16:29;;;;;;;1.80;1.10;;;;;;;;;;5059678;28;20433;-46
2021/12/05 05:18:58;;;;;;;1.40;1.10;;;;;;;;;;5067131;28;20448;-46
2021/12/05 05:41:01;;;;;;;3.00;1.67;;;;;;;;;;5065003;28;20546;-48
2021/12/05 05:43:32;;;;;;;4.30;1.10;;;;;;;;;;5053697;28;20447;-45
2021/12/05 05:46:11;;;;;;;3.80;1.60;;;;;;;;;;5062317;28;20421;-46
2021/12/05 05:51:07;;;;;;;3.20;1.20;;;;;;;;;;5063749;28;20437;-45
2021/12/05 05:53:33;;;;;;;2.03;1.13;;;;;;;;;;5049146;28;20502;-46
2021/12/05 05:55:59;;;;;;;1.93;1.07;;;;;;;;;;5062885;28;20787;-46
2021/12/05 05:58:40;;;;;;;1.53;1.37;;;;;;;;;;5059812;28;20426;-46
2021/12/05 06:01:33;;;;;;;2.60;1.37;;;;;;;;;;5049523;28;20556;-48
2021/12/05 06:04:32;;;;;;;2.93;1.47;;;;;;;;;;5048370;28;20449;-48
2021/12/05 06:06:58;;;;;;;3.53;1.10;;;;;;;;;;5062125;28;20452;-46
2021/12/05 06:09:44;;;;;;;6.20;1.37;;;;;;;;;;5053010;28;20519;-48
2021/12/05 06:12:12;;;;;;;2.50;1.23;;;;;;;;;;5064777;28;20484;-47
2021/12/05 06:14:38;;;;;;;5.10;1.33;;;;;;;;;;5060231;28;20460;-46
2021/12/05 06:17:04;;;;;;;2.47;1.30;;;;;;;;;;5049088;28;20442;-47
2021/12/05 06:19:30;;;;;;;4.83;1.43;;;;;;;;;;5063143;28;20440;-46
2021/12/05 06:22:01;;;;;;;1.60;1.27;;;;;;;;;;5057516;28;20452;-48
2021/12/05 06:24:27;;;;;;;3.73;1.50;;;;;;;;;;5063305;28;22838;-45
2021/12/05 06:26:53;;;;;;;3.87;1.40;;;;;;;;;;5055101;28;20503;-46
2021/12/05 06:29:22;;;;;;;3.17;1.47;;;;;;;;;;5063076;28;20926;-45
2021/12/05 06:32:35;;;;;;;2.17;1.20;;;;;;;;;;5059798;28;20900;-47
2021/12/05 06:37:45;;;;;;;4.43;1.40;;;;;;;;;;5040510;28;20555;-46
2021/12/05 06:40:24;;;;;;;4.27;1.23;;;;;;;;;;5038820;28;20681;-45
2021/12/05 06:43:05;;;;;;;1.27;1.17;;;;;;;;;;5063458;28;20430;-45
2021/12/05 06:48:16;;;;;;;1.50;1.13;;;;;;;;;;5063241;28;21177;-46
2021/12/05 06:50:42;;;;;;;1.70;1.10;;;;;;;;;;5045252;28;20457;-47
2021/12/05 06:53:08;;;;;;;1.13;1.00;;;;;;;;;;5063809;28;20444;-46
2021/12/05 06:55:34;;;;;;;2.27;0.97;;;;;;;;;;5037579;28;20467;-46
2021/12/05 06:58:00;;;;;;;2.90;1.23;;;;;;;;;;5065255;28;20448;-46
2021/12/05 07:00:30;;;;;;;6.23;1.17;;;;;;;;;;5059013;28;20465;-48
2021/12/05 07:02:56;;;;;;;1.97;1.30;;;;;;;;;;5078598;28;22813;-46
2021/12/05 07:07:55;;;;;;;1.30;1.20;;;;;;;;;;5057051;28;20916;-47
2021/12/05 07:10:21;;;;;;;2.20;1.30;;;;;;;;;;5048431;28;20760;-48
2021/12/05 07:15:17;;;;;;;2.07;1.10;;;;;;;;;;5049315;28;20445;-47
2021/12/05 07:23:43;;;;;;;1.93;1.30;;;;;;;;;;5060432;28;20432;-46
2021/12/05 07:26:13;;;;;;;2.83;1.10;;;;;;;;;;5049550;28;20515;-46
2021/12/05 07:42:28;;;;;;;2.20;1.43;;;;;;;;;;5021169;28;20479;-49
2021/12/05 07:44:56;;;;;;;1.63;1.20;;;;;;;;;;5061141;28;20483;-49
2021/12/05 07:47:27;;;;;;;3.50;1.40;;;;;;;;;;5042367;28;20438;-48
2021/12/05 07:49:54;;;;;;;2.90;1.47;;;;;;;;;;5062787;28;20445;-49
2021/12/05 07:52:25;;;;;;;4.73;1.40;;;;;;;;;;5060831;28;20480;-49
2021/12/05 07:55:04;;;;;;;3.60;1.60;;;;;;;;;;5062318;28;20423;-48
2021/12/05 07:57:41;;;;;;;3.73;1.90;;;;;;;;;;5042213;28;20557;-49
2021/12/05 08:16:57;;;;;;;6.73;1.47;;;;;;;;;;5041229;28;20449;-48
2021/12/05 08:19:23;;;;;;;2.50;1.77;;;;;;;;;;5058984;28;20465;-47
2021/12/05 08:21:55;;;;;;;2.50;2.30;;;;;;;;;;5058101;28;21280;-47
2021/12/05 08:24:22;;;;;;;2.47;1.70;;;;;;;;;;5061951;28;20434;-46
2021/12/05 08:26:50;;;;;;;2.13;1.20;;;;;;;;;;5041604;28;20473;-48
2021/12/05 08:29:22;;;;;;;2.23;1.40;;;;;;;;;;5080666;28;20440;-48
2021/12/05 08:34:39;;;;;;;3.17;1.40;;;;;;;;;;5063834;28;20441;-48
2021/12/05 08:37:30;;;;;;;2.20;1.50;;;;;;;;;;5043487;28;21298;-48
2021/12/05 09:21:08;;;;;;;2.90;1.60;;;;;;;;;;5058858;28;20484;-48
2021/12/05 10:06:47;;;;;;;3.00;1.37;;;;;;;;;;5063721;28;20511;-49
2021/12/05 10:09:53;;;;;;;3.60;1.20;;;;;;;;;;5058723;28;20529;-47
2021/12/05 10:12:24;;;;;;;1.30;0.73;;;;;;;;;;5059612;28;20895;-49
2021/12/05 10:14:59;;;;;;;3.60;0.80;;;;;;;;;;5046018;28;20801;-49
2021/12/05 10:37:34;;;;;;;6.30;2.03;;;;;;;;;;5033956;28;21255;-47
2021/12/05 10:40:01;;;;;;;1.87;1.00;;;;;;;;;;5022236;28;20833;-49
2021/12/05 10:42:38;;;;;;;1.10;1.00;;;;;;;;;;5060324;28;20442;-48
2021/12/05 10:45:05;;;;;;;1.97;1.40;;;;;;;;;;5053540;28;20509;-49
2021/12/05 10:47:42;;;;;;;4.67;1.20;;;;;;;;;;5064423;28;20492;-48
2021/12/05 10:50:32;;;;;;;1.53;1.30;;;;;;;;;;5037331;28;20555;-49
2021/12/05 10:53:19;;;;;;;1.20;0.80;;;;;;;;;;5063537;28;20450;-48
2021/12/05 10:55:45;;;;;;;1.67;1.10;;;;;;;;;;5048832;28;20503;-49
2021/12/05 10:58:12;;;;;;;1.63;1.20;;;;;;;;;;5040685;28;21059;-49
2021/12/05 11:00:39;;;;;;;1.10;0.83;;;;;;;;;;5064270;28;20481;-49
2021/12/05 11:03:13;;;;;;;1.67;1.10;;;;;;;;;;5051153;28;20450;-49
2021/12/05 11:05:41;;;;;;;3.97;1.27;;;;;;;;;;5061537;28;20428;-48
2021/12/05 11:08:26;;;;;;;1.93;1.10;;;;;;;;;;5047759;28;21124;-47
2021/12/05 11:10:52;;;;;;;1.57;1.00;;;;;;;;;;5060375;28;20441;-48
2021/12/05 11:13:28;;;;;;;1.87;0.80;;;;;;;;;;5043089;28;20755;-48
2021/12/05 11:15:54;;;;;;;1.93;0.80;;;;;;;;;;5065866;28;20459;-48
2021/12/05 11:18:40;;;;;;;1.87;1.10;;;;;;;;;;5040313;28;20476;-50
2021/12/05 11:21:29;;;;;;;2.37;0.80;;;;;;;;;;5067515;28;20828;-48
2021/12/05 11:24:13;;;;;;;1.40;0.90;;;;;;;;;;5017385;28;20453;-49
2021/12/05 11:26:48;;;;;;;3.40;1.57;;;;;;;;;;5056469;28;20433;-49
2021/12/05 11:29:24;;;;;;;6.90;1.70;;;;;;;;;;5073473;28;20486;-49
2021/12/05 11:31:52;;;;;;;1.33;0.93;;;;;;;;;;5070301;28;20445;-47
2021/12/05 11:34:29;;;;;;;1.93;1.10;;;;;;;;;;5036143;28;20858;-48
2021/12/05 11:36:57;;;;;;;2.93;1.20;;;;;;;;;;5044583;28;21000;-49
2021/12/05 11:39:23;;;;;;;1.43;1.10;;;;;;;;;;5054653;28;20947;-48
2021/12/05 11:41:57;;;;;;;3.03;1.40;;;;;;;;;;5066054;28;21182;-49
2021/12/05 11:44:24;;;;;;;1.70;1.17;;;;;;;;;;5048568;28;20442;-48
2021/12/05 11:46:50;;;;;;;3.00;1.43;;;;;;;;;;5059182;28;20796;-48
2021/12/05 11:49:20;;;;;;;2.30;1.17;;;;;;;;;;5049001;28;20473;-49
2021/12/05 11:52:03;;;;;;;2.57;1.23;;;;;;;;;;5063532;28;20976;-49
2021/12/05 11:54:39;;;;;;;2.50;1.50;;;;;;;;;;5049721;28;20449;-49
2021/12/05 11:57:26;;;;;;;1.90;1.40;;;;;;;;;;5060713;28;20429;-48
2021/12/05 12:00:01;;;;;;;1.87;1.27;;;;;;;;;;5041553;28;20456;-52
2021/12/05 12:02:46;;;;;;;4.80;1.23;;;;;;;;;;5054189;28;20541;-50
2021/12/05 12:05:22;;;;;;;1.70;1.00;;;;;;;;;;5049983;28;20645;-49
2021/12/05 12:08:00;;;;;;;1.47;1.00;;;;;;;;;;5065501;28;20459;-49
2021/12/05 12:10:45;;;;;;;1.50;1.10;;;;;;;;;;5057686;28;20437;-49
2021/12/05 12:13:12;;;;;;;1.50;1.20;;;;;;;;;;5053245;28;20466;-49
2021/12/05 12:15:39;;;;;;;2.30;1.10;;;;;;;;;;5044755;28;20430;-48
2021/12/05 12:18:16;;;;;;;1.53;1.30;;;;;;;;;;5056523;28;20444;-47
2021/12/05 12:20:45;;;;;;;1.53;1.37;;;;;;;;;;5051854;28;20461;-49
2021/12/05 12:23:11;;;;;;;1.20;1.00;;;;;;;;;;5033905;28;20442;-48
2021/12/05 12:25:38;;;;;;;1.50;1.20;;;;;;;;;;5047823;28;21648;-48
2021/12/05 12:28:04;;;;;;;3.30;1.80;;;;;;;;;;5056683;28;20464;-49
2021/12/05 12:30:31;;;;;;;2.60;1.47;;;;;;;;;;5032382;28;20453;-48
2021/12/05 12:33:05;;;;;;;1.70;1.30;;;;;;;;;;5063508;28;21118;-48
2021/12/05 12:35:34;;;;;;;3.90;1.77;;;;;;;;;;5044214;28;20626;-49
2021/12/05 12:38:08;;;;;;;1.60;1.30;;;;;;;;;;5063034;28;20786;-50
2021/12/05 12:40:37;;;;;;;2.67;1.50;;;;;;;;;;5044920;28;20477;-49
2021/12/05 12:43:12;;;;;;;1.60;1.50;;;;;;;;;;5060504;28;20425;-49
2021/12/05 12:45:43;;;;;;;3.60;1.80;;;;;;;;;;5049754;28;20432;-49
2021/12/05 12:48:25;;;;;;;1.70;1.20;;;;;;;;;;5054155;28;20457;-50
2021/12/05 12:50:51;;;;;;;2.10;1.23;;;;;;;;;;5058198;28;20571;-48
2021/12/05 12:53:39;;;;;;;1.47;1.00;;;;;;;;;;5049147;28;20695;-49
2021/12/05 12:56:10;;;;;;;1.40;1.00;;;;;;;;;;5057858;28;20524;-49
2021/12/05 12:58:37;;;;;;;1.93;0.73;;;;;;;;;;5025498;28;21266;-48
2021/12/05 13:01:20;;;;;;;2.90;1.27;;;;;;;;;;5034830;28;20481;-50
2021/12/05 13:12:44;;;;;;;1.50;1.40;;;;;;;;;;5063033;28;20510;-50
2021/12/05 13:15:53;;;;;;;2.30;0.93;;;;;;;;;;5038214;28;20461;-49
2021/12/05 13:18:25;;;;;;;4.07;1.20;;;;;;;;;;5049431;28;20437;-49
2021/12/05 13:21:03;;;;;;;1.13;0.80;;;;;;;;;;5055549;28;20516;-54
2021/12/05 13:23:36;;;;;;;1.83;1.10;;;;;;;;;;5058363;28;20437;-50
2021/12/05 13:26:11;;;;;;;1.20;0.97;;;;;;;;;;5044128;28;20465;-49
2021/12/05 13:28:57;;;;;;;3.40;1.53;;;;;;;;;;5059696;28;20428;-48
2021/12/05 13:31:31;;;;;;;1.00;0.87;;;;;;;;;;5032735;28;20997;-48
2021/12/05 13:34:17;;;;;;;1.43;1.13;;;;;;;;;;5057631;28;20459;-49
2021/12/05 13:36:43;;;;;;;1.60;0.80;;;;;;;;;;5058589;28;20437;-49
2021/12/05 13:39:29;;;;;;;1.30;0.87;;;;;;;;;;5056454;28;21220;-50
2021/12/05 13:42:15;;;;;;;1.70;1.10;;;;;;;;;;5066903;28;21010;-50
2021/12/05 13:45:04;;;;;;;1.20;0.70;;;;;;;;;;5048730;28;21019;-49
2021/12/05 13:47:31;;;;;;;3.03;1.10;;;;;;;;;;5071071;28;20499;-49
2021/12/05 13:49:58;;;;;;;1.20;1.00;;;;;;;;;;5051421;28;21139;-50
2021/12/05 13:52:30;;;;;;;1.90;1.00;;;;;;;;;;5066259;28;20444;-49
2021/12/05 13:55:15;;;;;;;1.27;0.87;;;;;;;;;;5060747;28;20480;-50
2021/12/05 13:58:04;;;;;;;1.30;1.00;;;;;;;;;;5069827;28;20433;-49
2021/12/05 14:00:40;;;;;;;1.20;0.97;;;;;;;;;;5030073;28;20551;-49
2021/12/05 14:03:06;;;;;;;1.30;1.07;;;;;;;;;;5060577;28;20425;-49
2021/12/05 14:05:32;;;;;;;1.40;1.10;;;;;;;;;;5059500;28;20503;-48
2021/12/05 14:07:58;;;;;;;3.93;2.20;;;;;;;;;;5062323;28;20506;-47
2021/12/05 14:10:25;;;;;;;2.53;1.70;;;;;;;;;;5061411;28;20486;-49
2021/12/05 14:12:51;;;;;;;7.13;2.70;;;;;;;;;;5064818;28;20449;-49
2021/12/05 14:15:18;;;;;;;2.57;1.60;;;;;;;;;;5044408;28;20480;-50
2021/12/05 14:17:48;;;;;;;1.70;1.10;;;;;;;;;;5062590;28;20438;-49
2021/12/05 14:20:16;;;;;;;3.70;1.80;;;;;;;;;;5040107;28;20474;-48
2021/12/05 14:22:43;;;;;;;4.40;1.20;;;;;;;;;;5055562;28;20452;-48
2021/12/05 14:25:14;;;;;;;1.87;1.27;;;;;;;;;;5053695;28;20515;-49
2021/12/05 14:27:45;;;;;;;2.13;1.93;;;;;;;;;;5053250;28;20430;-48
2021/12/05 14:30:12;;;;;;;1.40;1.00;;;;;;;;;;5049881;28;20475;-48
2021/12/05 14:32:39;;;;;;;1.60;1.00;;;;;;;;;;5048847;28;20521;-48
2021/12/05 14:35:07;;;;;;;1.83;1.10;;;;;;;;;;5031579;28;20456;-49
2021/12/05 14:37:39;;;;;;;1.97;0.90;;;;;;;;;;5044278;28;20461;-51
2021/12/05 14:40:12;;;;;;;1.83;1.00;;;;;;;;;;5056694;28;20509;-50
2021/12/05 14:42:41;;;;;;;1.20;0.80;;;;;;;;;;5045558;28;20548;-50
2021/12/05 14:45:10;;;;;;;1.67;1.57;;;;;;;;;;5060401;28;20437;-49
2021/12/05 14:47:37;;;;;;;2.27;1.33;;;;;;;;;;5047482;28;20497;-48
2021/12/05 14:50:07;;;;;;;2.27;1.37;;;;;;;;;;5065559;28;20537;-49
2021/12/05 14:52:34;;;;;;;2.97;1.37;;;;;;;;;;5043768;28;21691;-48
2021/12/05 14:55:01;;;;;;;2.57;1.30;;;;;;;;;;5062036;28;20430;-49
2021/12/05 14:57:36;;;;;;;3.73;1.60;;;;;;;;;;5056291;28;20445;-50
2021/12/05 15:00:11;;;;;;;4.20;1.63;;;;;;;;;;5061420;28;20459;-49
2021/12/05 15:02:37;;;;;;;2.13;1.40;;;;;;;;;;5018766;28;20983;-49
2021/12/05 15:05:03;;;;;;;3.73;2.00;;;;;;;;;;5061175;28;20434;-49
2021/12/05 15:07:30;;;;;;;1.30;1.20;;;;;;;;;;5039416;28;20465;-49
2021/12/05 15:09:57;;;;;;;2.50;1.50;;;;;;;;;;5051244;28;20449;-50
2021/12/05 15:12:24;;;;;;;3.10;1.40;;;;;;;;;;5053209;28;20438;-49
2021/12/05 15:14:52;;;;;;;4.20;1.87;;;;;;;;;;5054635;28;20453;-49
2021/12/05 15:17:33;;;;;;;1.70;1.30;;;;;;;;;;5047182;28;20445;-50
2021/12/05 15:20:00;;;;;;;1.60;1.40;;;;;;;;;;5053064;28;20472;-48
2021/12/05 15:22:27;;;;;;;1.50;1.20;;;;;;;;;;5036504;28;20541;-49
2021/12/05 15:24:56;;;;;;;2.13;1.50;;;;;;;;;;5051642;28;21188;-50
2021/12/05 15:27:23;;;;;;;1.57;1.30;;;;;;;;;;5044722;28;20444;-48
2021/12/05 15:29:57;;;;;;;3.20;1.20;;;;;;;;;;5048301;28;20442;-49
2021/12/05 15:32:34;;;;;;;3.70;1.67;;;;;;;;;;5055783;28;20453;-50
2021/12/05 15:35:02;;;;;;;1.53;1.23;;;;;;;;;;5035811;28;20441;-49
2021/12/05 15:37:46;;;;;;;1.93;1.50;;;;;;;;;;5042820;28;20536;-49
2021/12/05 15:40:15;;;;;;;1.30;1.20;;;;;;;;;;5041694;28;20651;-49
2021/12/05 15:42:42;;;;;;;2.30;1.50;;;;;;;;;;5050109;28;21716;-49
2021/12/05 15:45:09;;;;;;;4.23;1.57;;;;;;;;;;5045406;28;20175;-49
2021/12/05 15:47:36;;;;;;;4.70;2.00;;;;;;;;;;5050372;28;20464;-49
2021/12/05 15:50:06;;;;;;;4.20;2.03;;;;;;;;;;5024589;28;20433;-49
2021/12/05 15:52:41;;;;;;;2.60;1.90;;;;;;;;;;5045376;28;20594;-49
2021/12/05 15:55:16;;;;;;;3.40;2.03;;;;;;;;;;5021705;28;20433;-50
2021/12/05 15:57:52;;;;;;;4.33;1.90;;;;;;;;;;5048554;28;20446;-51
2021/12/05 16:00:30;;;;;;;2.50;1.73;;;;;;;;;;5041582;28;20491;-49
2021/12/05 16:02:59;;;;;;;3.27;1.67;;;;;;;;;;5044778;28;20438;-50
2021/12/05 16:05:27;;;;;;;3.20;2.27;;;;;;;;;;5045791;28;20421;-49
2021/12/05 16:08:27;;;;;;;2.50;1.73;;;;;;;;;;5041068;28;21361;-50
2021/12/05 16:10:59;;;;;;;2.67;2.00;;;;;;;;;;5039922;28;20437;-50
2021/12/05 16:13:38;;;;;;;2.87;1.63;;;;;;;;;;5057795;28;20456;-49
2021/12/05 16:16:18;;;;;;;1.60;1.30;;;;;;;;;;5071645;28;20429;-49
2021/12/05 16:18:48;;;;;;;7.77;1.70;;;;;;;;;;5038695;28;20875;-49
2021/12/05 16:21:18;;;;;;;1.60;1.50;;;;;;;;;;5027567;28;20641;-49
2021/12/05 16:23:45;;;;;;;2.10;1.47;;;;;;;;;;5052239;28;20540;-49
2021/12/05 16:26:16;;;;;;;4.63;2.50;;;;;;;;;;5036133;28;20449;-48
2021/12/05 16:28:44;;;;;;;4.03;2.93;;;;;;;;;;5045733;28;20437;-48
2021/12/05 16:31:26;;;;;;;7.20;3.23;;;;;;;;;;5028398;28;20481;-48
2021/12/05 16:33:57;;;;;;;2.70;2.20;;;;;;;;;;5051860;28;20430;-49
2021/12/05 16:36:30;;;;;;;4.00;2.43;;;;;;;;;;5061251;28;20462;-48
2021/12/05 16:38:56;;;;;;;6.30;3.53;;;;;;;;;;5038715;28;20440;-48
2021/12/05 16:41:29;;;;;;;3.43;2.63;;;;;;;;;;5055960;28;20469;-48
2021/12/05 16:44:00;;;;;;;4.43;2.70;;;;;;;;;;5007278;28;20448;-49
2021/12/05 16:46:29;;;;;;;1.60;1.50;;;;;;;;;;5056400;28;20528;-49
2021/12/05 16:48:58;;;;;;;4.13;1.93;;;;;;;;;;5032826;28;20443;-50
2021/12/05 16:51:30;;;;;;;6.57;1.70;;;;;;;;;;5060699;28;21095;-49
2021/12/05 16:54:02;;;;;;;2.60;2.13;;;;;;;;;;5047412;28;20567;-49
2021/12/05 16:56:38;;;;;;;3.37;2.30;;;;;;;;;;5075704;28;20442;-48
2021/12/05 16:59:05;;;;;;;4.80;2.00;;;;;;;;;;5028053;28;20444;-47
2021/12/05 17:01:39;;;;;;;2.90;2.60;;;;;;;;;;5059319;28;20477;-49
2021/12/05 17:04:08;;;;;;;3.90;2.87;;;;;;;;;;5029107;28;20468;-47
2021/12/05 17:06:57;;;;;;;4.67;2.13;;;;;;;;;;5050868;28;20422;-48
2021/12/05 17:09:24;;;;;;;4.43;2.90;;;;;;;;;;5049432;28;20491;-48
2021/12/05 17:11:50;;;;;;;3.07;2.40;;;;;;;;;;5046416;28;20437;-48
2021/12/05 17:14:21;;;;;;;5.50;3.20;;;;;;;;;;5019686;28;20446;-50
2021/12/05 17:16:47;;;;;;;4.33;3.93;;;;;;;;;;5046145;28;20437;-48
2021/12/05 17:19:13;;;;;;;4.80;3.17;;;;;;;;;;5030348;28;20954;-48
2021/12/05 17:21:52;;;;;;;3.70;2.90;;;;;;;;;;5052652;28;20488;-50
2021/12/05 17:24:26;;;;;;;3.40;2.77;;;;;;;;;;5051567;28;20506;-48
2021/12/05 17:27:11;;;;;;;6.80;2.43;;;;;;;;;;5056384;28;20445;-49
2021/12/05 17:29:43;;;;;;;2.67;2.47;;;;;;;;;;5047500;28;21591;-47
2021/12/05 17:32:33;;;;;;;2.87;1.90;;;;;;;;;;5039255;28;23792;-49
2021/12/05 17:35:00;;;;;;;4.83;2.17;;;;;;;;;;5057566;28;20748;-48
2021/12/05 17:37:36;;;;;;;4.07;2.77;;;;;;;;;;5053130;28;20465;-49
2021/12/05 17:40:07;;;;;;;4.00;3.03;;;;;;;;;;5058264;28;21012;-49
2021/12/05 17:42:41;;;;;;;5.63;3.20;;;;;;;;;;5012877;28;23964;-48
2021/12/05 17:45:07;;;;;;;3.33;2.40;;;;;;;;;;5052735;28;20914;-48
2021/12/05 17:47:42;;;;;;;14.20;3.33;;;;;;;;;;5056307;28;20446;-51
2021/12/05 17:50:20;;;;;;;3.40;2.87;;;;;;;;;;5040524;28;20537;-49
2021/12/05 17:52:49;;;;;;;5.00;3.10;;;;;;;;;;5050606;28;20445;-48
2021/12/05 17:55:26;;;;;;;11.93;5.93;;;;;;;;;;5045543;28;20464;-50
2021/12/05 17:57:59;;;;;;;5.13;3.60;;;;;;;;;;5053181;28;20428;-50
2021/12/05 18:03:02;;;;;;;7.73;6.00;;;;;;;;;;5057272;28;20507;-49
2021/12/05 18:05:41;;;;;;;9.67;5.40;;;;;;;;;;5040765;28;23786;-48
2021/12/05 18:08:10;;;;;;;6.47;3.47;;;;;;;;;;5039452;28;20556;-48
2021/12/05 18:10:37;;;;;;;3.83;3.33;;;;;;;;;;5055237;28;20497;-48
2021/12/05 18:13:04;;;;;;;4.73;3.80;;;;;;;;;;5026195;28;20446;-48
2021/12/05 18:15:34;;;;;;;3.93;3.53;;;;;;;;;;5048463;28;20493;-49
2021/12/05 18:18:00;;;;;;;5.27;3.73;;;;;;;;;;5040603;28;20436;-49
2021/12/05 18:20:34;;;;;;;3.33;2.63;;;;;;;;;;5062202;28;22115;-50
2021/12/05 18:23:05;;;;;;;5.73;3.77;;;;;;;;;;5045938;28;20448;-48
2021/12/05 18:25:32;;;;;;;4.40;3.30;;;;;;;;;;5055597;28;20476;-49
2021/12/05 18:27:58;;;;;;;3.90;3.13;;;;;;;;;;5053224;28;20445;-49
2021/12/05 18:30:25;;;;;;;3.63;3.33;;;;;;;;;;5056264;28;20476;-48
2021/12/05 18:32:51;;;;;;;4.97;3.57;;;;;;;;;;5047291;28;20426;-49
2021/12/05 18:35:17;;;;;;;7.90;3.50;;;;;;;;;;5053903;28;20962;-48
2021/12/05 18:37:45;;;;;;;4.43;3.10;;;;;;;;;;5028155;28;24581;-49
2021/12/05 18:40:12;;;;;;;4.63;4.17;;;;;;;;;;5058141;28;20452;-50
2021/12/05 18:42:38;;;;;;;5.33;3.40;;;;;;;;;;5059765;28;20440;-49
2021/12/05 18:45:05;;;;;;;3.80;3.00;;;;;;;;;;5066366;28;20426;-49
2021/12/05 18:47:31;;;;;;;5.10;3.20;;;;;;;;;;5028588;28;20830;-49
2021/12/05 18:49:57;;;;;;;4.10;3.20;;;;;;;;;;5044206;28;20430;-49
2021/12/05 18:52:24;;;;;;;4.17;3.07;;;;;;;;;;5053283;28;20511;-50
2021/12/05 18:54:50;;;;;;;3.47;3.17;;;;;;;;;;5056632;28;20942;-49
2021/12/05 18:57:32;;;;;;;5.43;3.10;;;;;;;;;;5054239;28;20445;-51
2021/12/05 19:00:10;;;;;;;5.60;3.20;;;;;;;;;;5050991;28;20948;-48
2021/12/05 19:05:33;;;;;;;7.50;5.00;;;;;;;;;;5050547;28;20444;-49
2021/12/05 19:08:17;;;;;;;6.10;3.33;;;;;;;;;;5035700;28;20526;-48
2021/12/05 19:13:29;;;;;;;5.83;3.90;;;;;;;;;;5030179;28;20940;-49
2021/12/05 19:15:57;;;;;;;3.53;3.23;;;;;;;;;;5052116;28;20447;-49
2021/12/05 19:18:24;;;;;;;5.80;3.37;;;;;;;;;;5010788;28;20518;-48
2021/12/05 19:20:52;;;;;;;5.13;3.80;;;;;;;;;;5049141;28;20987;-49
2021/12/05 19:23:21;;;;;;;5.63;4.37;;;;;;;;;;5044878;28;20461;-48
2021/12/05 19:25:47;;;;;;;6.57;5.00;;;;;;;;;;5052374;28;20456;-48
2021/12/05 19:28:13;;;;;;;7.00;4.60;;;;;;;;;;5036450;28;20804;-48
2021/12/05 19:30:41;;;;;;;4.73;4.23;;;;;;;;;;5042915;28;20450;-49
2021/12/05 19:33:08;;;;;;;5.43;4.20;;;;;;;;;;5050825;28;20509;-48
2021/12/05 19:35:36;;;;;;;4.17;3.70;;;;;;;;;;5048605;28;20545;-49
2021/12/05 19:38:02;;;;;;;4.43;3.97;;;;;;;;;;5048315;28;20946;-48
2021/12/05 19:40:29;;;;;;;6.27;4.30;;;;;;;;;;5036986;28;20473;-49
2021/12/05 19:42:57;;;;;;;22.13;11.00;;;;;;;;;;5051803;28;20953;-49
2021/12/05 19:45:23;;;;;;;5.17;3.20;;;;;;;;;;5030802;28;20529;-48
2021/12/05 19:47:51;;;;;;;4.20;3.57;;;;;;;;;;5056306;28;20558;-49
2021/12/05 19:50:18;;;;;;;6.20;4.43;;;;;;;;;;5019159;28;20449;-48
2021/12/05 19:52:44;;;;;;;5.47;3.97;;;;;;;;;;5059716;28;20439;-48
2021/12/05 19:55:10;;;;;;;4.30;4.00;;;;;;;;;;5053154;28;20437;-48
2021/12/05 19:57:37;;;;;;;7.63;5.00;;;;;;;;;;5062407;28;20461;-49
2021/12/05 20:00:12;;;;;;;7.87;4.97;;;;;;;;;;5039047;28;20434;-48
2021/12/05 20:02:38;;;;;;;13.47;7.27;;;;;;;;;;5077899;28;20461;-48
2021/12/05 20:05:05;;;;;;;10.30;6.90;;;;;;;;;;5051699;28;20528;-48
2021/12/05 20:07:31;;;;;;;8.17;5.40;;;;;;;;;;5065716;28;21063;-48
2021/12/05 20:10:01;;;;;;;7.60;5.90;;;;;;;;;;5037408;28;22970;-49
2021/12/05 20:12:30;;;;;;;8.00;4.50;;;;;;;;;;5057911;28;21199;-49